createdAt,value
2022-08-03T00:01:35.797Z,100743.06
2022-08-03T00:04:03.609Z,100745.53
2022-08-03T00:06:36.903Z,100743.25
2022-08-03T00:09:06.592Z,100742.66
2022-08-03T00:11:34.580Z,100748.84
2022-08-03T00:14:02.504Z,100740.53
2022-08-03T00:16:30.309Z,100733.47
2022-08-03T00:18:58.134Z,100734.31
2022-08-03T00:21:28.736Z,100738.03
2022-08-03T00:23:57.914Z,100730.19
2022-08-03T00:26:25.664Z,100729.56
2022-08-03T00:28:53.433Z,100725.22
2022-08-03T00:31:23.129Z,100732.66
2022-08-03T00:34:09.103Z,100729.16
2022-08-03T00:36:36.892Z,100723.53
2022-08-03T00:39:06.155Z,100729.56
2022-08-03T00:41:33.944Z,100728.91
2022-08-03T00:44:01.820Z,100728.91
2022-08-03T00:46:29.616Z,100735.13
2022-08-03T00:48:57.532Z,100730.16
2022-08-03T00:51:25.446Z,100726.44
2022-08-03T00:53:53.292Z,100730.59
2022-08-03T00:56:22.495Z,100736.38
2022-08-03T00:58:51.208Z,100725.63
2022-08-03T01:01:19.043Z,100728.31
2022-08-03T01:03:47.434Z,100722.28
2022-08-03T01:06:19.807Z,100718.97
2022-08-03T01:08:53.460Z,100721.03
2022-08-03T01:12:00.310Z,100721.03
2022-08-03T01:14:34.852Z,100721.44
2022-08-03T01:17:12.112Z,100715.81
2022-08-03T01:19:47.638Z,100714.16
2022-08-03T01:22:56.886Z,100715.81
2022-08-03T01:25:36.309Z,100715.19
2022-08-03T01:28:20.956Z,100724.31
2022-08-03T01:30:53.650Z,100712.09
2022-08-03T01:33:26.963Z,100713.34
2022-08-03T01:36:00.670Z,100720.97
2022-08-03T01:38:33.084Z,100719.56
2022-08-03T01:41:05.457Z,100722.25
2022-08-03T01:44:28.092Z,100715.59
2022-08-03T01:46:25.689Z,100712.91
2022-08-03T01:48:55.238Z,100712.28
2022-08-03T01:51:24.760Z,100702.97
2022-08-03T01:54:13.577Z,100713.53
2022-08-03T01:56:43.680Z,100711.88
2022-08-03T01:59:15.518Z,100708.78
2022-08-03T02:02:15.494Z,100702.78
2022-08-03T02:04:35.677Z,100700.09
2022-08-03T02:07:04.107Z,100700.28
2022-08-03T02:09:33.057Z,100701.94
2022-08-03T02:12:01.874Z,100700.50
2022-08-03T02:14:30.890Z,100705.25
2022-08-03T02:17:00.694Z,100704.81
2022-08-03T02:19:35.270Z,100700.47
2022-08-03T02:22:04.615Z,100706.66
2022-08-03T02:24:33.050Z,100701.91
2022-08-03T02:27:02.147Z,100700.25
2022-08-03T02:29:40.050Z,100706.06
2022-08-03T02:32:15.296Z,100703.59
2022-08-03T02:34:47.422Z,100707.69
2022-08-03T02:37:19.231Z,100699.00
2022-08-03T02:39:49.006Z,100697.34
2022-08-03T02:42:20.006Z,100697.34
2022-08-03T02:44:52.092Z,100697.34
2022-08-03T02:47:22.309Z,100697.53
2022-08-03T02:49:52.641Z,100704.78
2022-08-03T02:52:24.316Z,100695.69
2022-08-03T02:54:55.786Z,100694.84
2022-08-03T02:57:25.925Z,100694.41
2022-08-03T02:59:56.304Z,100692.56
2022-08-03T03:02:26.438Z,100698.53
2022-08-03T03:05:56.803Z,100688.41
2022-08-03T03:07:52.099Z,100690.25
2022-08-03T03:10:22.500Z,100692.72
2022-08-03T03:12:52.361Z,100692.72
2022-08-03T03:15:20.388Z,100689.41
2022-08-03T03:17:51.268Z,100699.31
2022-08-03T03:20:29.440Z,100698.09
2022-08-03T03:23:00.974Z,100703.47
2022-08-03T03:25:29.865Z,100701.81
2022-08-03T03:27:58.152Z,100701.19
2022-08-03T03:30:26.591Z,100702.84
2022-08-03T03:32:56.281Z,100705.53
2022-08-03T03:35:24.628Z,100702.41
2022-08-03T03:37:53.300Z,100702.41
2022-08-03T03:40:21.444Z,100693.50
2022-08-03T03:42:50.347Z,100703.63
2022-08-03T03:45:19.772Z,100707.34
2022-08-03T03:47:48.134Z,100703.81
2022-08-03T03:50:20.273Z,100701.13
2022-08-03T03:52:48.065Z,100696.13
2022-08-03T03:55:19.031Z,100690.13
2022-08-03T03:57:47.587Z,100702.75
2022-08-03T04:00:16.828Z,100698.38
2022-08-03T04:02:44.952Z,100696.72
2022-08-03T04:05:30.577Z,100701.69
2022-08-03T04:08:19.690Z,100703.38
2022-08-03T04:11:01.586Z,100708.94
2022-08-03T04:13:32.997Z,100703.75
2022-08-03T04:16:02.387Z,100702.94
2022-08-03T04:18:33.593Z,100701.69
2022-08-03T04:21:04.797Z,100710.59
2022-08-03T04:23:36.850Z,100708.75
2022-08-03T04:26:09.674Z,100705.41
2022-08-03T04:28:41.134Z,100701.69
2022-08-03T04:31:09.278Z,100713.28
2022-08-03T04:33:39.528Z,100716.16
2022-08-03T04:36:11.330Z,100715.53
2022-08-03T04:38:48.179Z,100713.47
2022-08-03T04:41:16.579Z,100719.50
2022-08-03T04:43:45.478Z,100726.53
2022-08-03T04:46:14.162Z,100721.97
2022-08-03T04:48:44.731Z,100727.75
2022-08-03T04:51:13.437Z,100728.56
2022-08-03T04:53:44.369Z,100734.34
2022-08-03T04:56:12.530Z,100726.53
2022-08-03T04:58:40.438Z,100735.19
2022-08-03T05:01:08.690Z,100726.53
2022-08-03T05:03:36.578Z,100723.63
2022-08-03T05:06:11.408Z,100726.09
2022-08-03T05:08:46.411Z,100736.91
2022-08-03T05:11:16.327Z,100730.31
2022-08-03T05:13:44.440Z,100718.28
2022-08-03T05:16:15.912Z,100726.59
2022-08-03T05:18:46.187Z,100729.47
2022-08-03T05:21:16.686Z,100720.81
2022-08-03T05:23:44.916Z,100729.09
2022-08-03T05:26:13.150Z,100731.59
2022-08-03T05:28:50.829Z,100731.78
2022-08-03T05:31:19.992Z,100737.78
2022-08-03T05:33:48.979Z,100738.00
2022-08-03T05:36:17.115Z,100736.97
2022-08-03T05:38:44.886Z,100739.44
2022-08-03T05:41:21.290Z,100736.97
2022-08-03T05:43:52.637Z,100736.13
2022-08-03T05:46:21.063Z,100736.56
2022-08-03T05:48:48.913Z,100730.78
2022-08-03T05:51:16.767Z,100730.81
2022-08-03T05:53:45.314Z,100734.13
2022-08-03T05:56:16.002Z,100724.19
2022-08-03T05:58:46.093Z,100730.22
2022-08-03T06:01:16.029Z,100730.00
2022-08-03T06:03:43.935Z,100731.66
2022-08-03T06:06:12.161Z,100734.78
2022-08-03T06:08:40.592Z,100731.91
2022-08-03T06:11:10.293Z,100736.88
2022-08-03T06:13:38.141Z,100739.59
2022-08-03T06:16:09.241Z,100741.88
2022-08-03T06:18:38.952Z,100746.22
2022-08-03T06:21:14.283Z,100729.69
2022-08-03T06:23:53.333Z,100742.50
2022-08-03T06:26:24.992Z,100737.97
2022-08-03T06:28:54.567Z,100738.38
2022-08-03T06:31:25.939Z,100738.81
2022-08-03T06:34:34.225Z,100735.09
2022-08-03T06:36:53.141Z,100746.28
2022-08-03T06:39:23.453Z,100751.25
2022-08-03T06:41:53.432Z,100735.53
2022-08-03T06:44:21.339Z,100744.22
2022-08-03T06:46:49.055Z,100744.84
2022-08-03T06:49:18.846Z,100746.31
2022-08-03T06:52:37.069Z,100745.47
2022-08-03T06:54:37.145Z,100746.75
2022-08-03T06:57:06.043Z,100747.97
2022-08-03T07:00:09.092Z,100746.53
2022-08-03T07:02:24.654Z,100748.63
2022-08-03T07:04:58.026Z,100750.91
2022-08-03T07:07:25.886Z,100749.03
2022-08-03T07:09:57.019Z,100749.25
2022-08-03T07:12:27.178Z,100752.16
2022-08-03T07:15:01.208Z,100752.56
2022-08-03T07:17:30.954Z,100749.72
2022-08-03T07:20:01.315Z,100752.41
2022-08-03T07:22:29.381Z,100754.25
2022-08-03T07:24:57.573Z,100755.50
2022-08-03T07:27:28.164Z,100753.84
2022-08-03T07:29:56.191Z,100760.03
2022-08-03T07:32:25.768Z,100764.19
2022-08-03T07:34:58.292Z,100765.25
2022-08-03T07:37:30.346Z,100763.81
2022-08-03T07:39:58.372Z,100760.47
2022-08-03T07:42:26.190Z,100765.84
2022-08-03T07:44:54.015Z,100748.25
2022-08-03T07:47:23.962Z,100765.00
2022-08-03T07:49:51.820Z,100766.22
2022-08-03T07:52:36.941Z,100760.41
2022-08-03T07:55:07.476Z,100766.03
2022-08-03T07:57:36.158Z,100725.41
2022-08-03T08:00:06.513Z,100758.97
2022-08-03T08:02:43.905Z,100760.41
2022-08-03T08:05:12.571Z,100751.50
2022-08-03T08:07:40.961Z,100755.59
2022-08-03T08:10:11.627Z,100740.69
2022-08-03T08:12:41.371Z,100757.47
2022-08-03T08:15:10.139Z,100718.13
2022-08-03T08:17:46.475Z,100758.28
2022-08-03T08:20:18.900Z,100750.41
2022-08-03T08:22:58.096Z,100751.22
2022-08-03T08:25:27.494Z,100764.03
2022-08-03T08:28:31.032Z,100763.63
2022-08-03T08:30:43.777Z,100760.66
2022-08-03T08:33:22.449Z,100769.16
2022-08-03T08:35:53.062Z,100771.25
2022-08-03T08:38:21.208Z,100763.63
2022-08-03T08:40:50.596Z,100756.31
2022-08-03T08:43:18.516Z,100728.75
2022-08-03T08:45:47.413Z,100760.66
2022-08-03T08:48:16.536Z,100754.84
2022-08-03T08:50:45.018Z,100757.09
2022-08-03T08:53:17.583Z,100756.91
2022-08-03T08:55:59.419Z,100759.97
2022-08-03T08:58:33.816Z,100753.97
2022-08-03T09:01:01.756Z,100758.09
2022-08-03T09:03:30.938Z,100762.03
2022-08-03T09:06:01.317Z,100755.19
2022-08-03T09:08:30.346Z,100757.00
2022-08-03T09:10:58.333Z,100756.03
2022-08-03T09:13:26.411Z,100752.00
2022-08-03T09:16:15.243Z,100755.88
2022-08-03T09:18:44.154Z,100754.19
2022-08-03T09:21:32.301Z,100758.97
2022-08-03T09:24:05.196Z,100757.09
2022-08-03T09:26:35.709Z,100753.66
2022-08-03T09:29:10.903Z,100752.81
2022-08-03T09:31:46.455Z,100747.84
2022-08-03T09:34:16.655Z,100709.31
2022-08-03T09:36:48.661Z,100756.06
2022-08-03T09:39:17.762Z,100742.38
2022-08-03T09:41:47.166Z,100740.88
2022-08-03T09:44:24.663Z,100735.19
2022-08-03T09:46:57.235Z,100737.63
2022-08-03T09:49:25.865Z,100739.28
2022-08-03T09:52:31.467Z,100741.22
2022-08-03T09:54:42.422Z,100728.22
2022-08-03T09:57:20.884Z,100740.28
2022-08-03T09:59:48.817Z,100745.97
2022-08-03T10:02:25.428Z,100749.19
2022-08-03T10:04:54.156Z,100753.75
2022-08-03T10:07:23.860Z,100737.09
2022-08-03T10:09:56.641Z,100747.25
2022-08-03T10:12:25.312Z,100738.59
2022-08-03T10:14:53.952Z,100752.19
2022-08-03T10:17:22.869Z,100733.25
2022-08-03T10:19:52.188Z,100735.63
2022-08-03T10:22:23.480Z,100724.13
2022-08-03T10:24:56.816Z,100735.22
2022-08-03T10:27:25.872Z,100728.53
2022-08-03T10:29:56.301Z,100742.69
2022-08-03T10:32:29.776Z,100733.22
2022-08-03T10:35:19.135Z,100715.00
2022-08-03T10:37:57.184Z,100722.19
2022-08-03T10:43:20.912Z,100720.69
2022-08-03T10:45:49.249Z,100725.38
2022-08-03T10:48:18.313Z,100721.44
2022-08-03T10:50:49.505Z,100722.16
2022-08-03T10:53:18.661Z,100708.09
2022-08-03T10:56:05.772Z,100697.22
2022-08-03T10:58:53.483Z,100716.16
2022-08-03T11:01:58.799Z,100714.94
2022-08-03T11:04:29.263Z,100708.69
2022-08-03T11:07:23.538Z,100700.38
2022-08-03T11:09:52.702Z,100710.34
2022-08-03T11:12:29.973Z,100705.97
2022-08-03T11:15:02.330Z,100704.69
2022-08-03T11:17:30.256Z,100707.56
2022-08-03T11:19:58.708Z,100695.38
2022-08-03T11:22:54.059Z,100708.94
2022-08-03T11:25:54.756Z,100707.03
2022-08-03T11:28:36.876Z,100699.75
2022-08-03T11:31:51.460Z,100713.19
2022-08-03T11:34:19.766Z,100700.44
2022-08-03T11:37:23.573Z,100696.66
2022-08-03T11:39:56.942Z,100697.00
2022-08-03T11:42:48.259Z,100707.44
2022-08-03T11:45:16.780Z,100707.06
2022-08-03T11:47:50.764Z,100707.13
2022-08-03T11:50:21.145Z,100701.97
2022-08-03T11:52:50.157Z,100706.44
2022-08-03T11:55:22.103Z,100705.91
2022-08-03T11:58:58.059Z,100701.00
2022-08-03T12:00:38.276Z,100691.16
2022-08-03T12:03:09.170Z,100692.28
2022-08-03T12:05:39.388Z,100702.13
2022-08-03T12:08:08.019Z,100697.72
2022-08-03T12:10:38.215Z,100693.06
2022-08-03T12:14:45.122Z,100698.25
2022-08-03T12:15:59.168Z,100683.75
2022-08-03T12:18:27.143Z,100698.72
2022-08-03T12:21:05.832Z,100681.44
2022-08-03T12:23:37.406Z,100677.31
2022-08-03T12:26:08.636Z,100682.16
2022-08-03T12:28:38.434Z,100683.25
2022-08-03T12:31:09.305Z,100680.78
2022-08-03T12:34:02.820Z,100686.66
2022-08-03T12:36:32.117Z,100682.53
2022-08-03T12:39:02.429Z,100687.75
2022-08-03T12:41:35.834Z,100674.50
2022-08-03T12:44:04.567Z,100666.47
2022-08-03T12:46:34.340Z,100688.91
2022-08-03T12:49:05.829Z,100689.31
2022-08-03T12:51:35.681Z,100675.97
2022-08-03T12:54:04.879Z,100661.75
2022-08-03T12:56:34.346Z,100672.84
2022-08-03T12:59:02.319Z,100668.72
2022-08-03T13:01:38.139Z,100680.13
2022-08-03T13:04:30.345Z,100675.09
2022-08-03T13:07:03.407Z,100674.31
2022-08-03T13:09:41.595Z,100674.75
2022-08-03T13:12:13.301Z,100663.81
2022-08-03T13:14:41.576Z,100681.88
2022-08-03T13:17:12.425Z,100661.63
2022-08-03T13:19:41.207Z,100675.28
2022-08-03T13:22:13.433Z,100639.19
2022-08-03T13:24:41.368Z,100672.25
2022-08-03T13:28:04.928Z,100653.41
2022-08-03T13:29:59.476Z,100649.59
2022-08-03T13:32:27.774Z,100665.44
2022-08-03T13:34:55.670Z,100659.97
2022-08-03T13:37:23.847Z,100654.78
2022-08-03T13:39:58.996Z,100658.06
2022-08-03T13:42:31.220Z,100645.19
2022-08-03T13:44:59.569Z,100654.53
2022-08-03T13:47:27.656Z,100645.47
2022-08-03T13:50:01.763Z,100641.38
2022-08-03T13:52:31.668Z,100633.72
2022-08-03T13:54:59.825Z,100623.34
2022-08-03T13:58:03.796Z,100635.91
2022-08-03T14:00:26.446Z,100627.97
2022-08-03T14:03:02.946Z,100627.69
2022-08-03T14:05:35.130Z,100621.97
2022-08-03T14:08:05.291Z,100614.59
2022-08-03T14:10:35.011Z,100617.31
2022-08-03T14:13:02.810Z,100618.44
2022-08-03T14:15:37.557Z,100619.53
2022-08-03T14:18:06.737Z,100613.47
2022-08-03T14:20:36.856Z,100613.50
2022-08-03T14:23:07.580Z,100603.94
2022-08-03T14:25:43.604Z,100604.72
2022-08-03T14:28:18.913Z,100610.47
2022-08-03T14:30:48.641Z,100596.53
2022-08-03T14:33:20.069Z,100600.38
2022-08-03T14:35:50.421Z,100598.19
2022-08-03T14:38:19.153Z,100594.38
2022-08-03T14:40:47.535Z,100587.75
2022-08-03T14:43:17.777Z,100581.78
2022-08-03T14:45:45.580Z,100575.78
2022-08-03T14:50:27.964Z,100573.31
2022-08-03T14:51:06.611Z,100575.72
2022-08-03T14:53:35.703Z,100570.31
2022-08-03T14:56:07.965Z,100571.94
2022-08-03T14:58:38.194Z,100568.66
2022-08-03T15:02:06.335Z,100565.38
2022-08-03T15:03:56.802Z,100562.09
2022-08-03T15:06:24.643Z,100567.53
2022-08-03T15:09:20.906Z,100573.00
2022-08-03T15:11:40.210Z,100564.28
2022-08-03T15:14:09.537Z,100559.06
2022-08-03T15:16:37.857Z,100551.66
2022-08-03T15:20:01.316Z,100552.53
2022-08-03T15:21:54.998Z,100559.88
2022-08-03T15:24:22.947Z,100553.88
2022-08-03T15:26:53.534Z,100548.69
2022-08-03T15:30:07.257Z,100543.25
2022-08-03T15:32:09.776Z,100546.78
2022-08-03T15:34:39.167Z,100536.94
2022-08-03T15:37:12.857Z,100538.56
2022-08-03T15:39:59.621Z,100535.81
2022-08-03T15:42:29.553Z,100535.31
2022-08-03T15:44:57.404Z,100539.69
2022-08-03T15:47:25.383Z,100532.00
2022-08-03T15:49:54.618Z,100528.75
2022-08-03T15:52:22.633Z,100529.78
2022-08-03T15:54:50.750Z,100528.38
2022-08-03T15:57:19.097Z,100525.88
2022-08-03T15:59:47.232Z,100524.25
2022-08-03T16:02:15.360Z,100529.16
2022-08-03T16:04:43.573Z,100523.13
2022-08-03T16:07:15.708Z,100524.81
2022-08-03T16:09:44.323Z,100527.00
2022-08-03T16:12:16.327Z,100522.97
2022-08-03T16:14:53.769Z,100521.63
2022-08-03T16:17:22.629Z,100519.44
2022-08-03T16:19:50.757Z,100516.69
2022-08-03T16:22:23.035Z,100521.63
2022-08-03T16:24:51.849Z,100518.91
2022-08-03T16:27:37.328Z,100511.78
2022-08-03T16:30:10.524Z,100508.50
2022-08-03T16:32:39.803Z,100507.41
2022-08-03T16:35:08.445Z,100506.59
2022-08-03T16:37:39.211Z,100510.41
2022-08-03T16:40:19.161Z,100504.94
2022-08-03T16:42:47.664Z,100507.97
2022-08-03T16:45:15.703Z,100509.06
2022-08-03T16:47:43.600Z,100505.50
2022-08-03T16:50:19.020Z,100504.69
2022-08-03T16:52:48.842Z,100510.16
2022-08-03T16:55:42.893Z,100506.31
2022-08-03T16:58:05.748Z,100509.31
2022-08-03T17:00:41.518Z,100515.06
2022-08-03T17:03:18.591Z,100512.56
2022-08-03T17:05:49.686Z,100509.50
2022-08-03T17:08:26.628Z,100502.97
2022-08-03T17:10:56.076Z,100507.88
2022-08-03T17:13:39.294Z,100515.81
2022-08-03T17:16:12.088Z,100508.97
2022-08-03T17:18:51.901Z,100511.16
2022-08-03T17:21:25.862Z,100511.38
2022-08-03T17:24:05.263Z,100516.00
2022-08-03T17:26:44.771Z,100519.00
2022-08-03T17:29:14.564Z,100505.03
2022-08-03T17:31:49.065Z,100510.47
2022-08-03T17:34:18.925Z,100509.94
2022-08-03T17:37:03.688Z,100506.06
2022-08-03T17:42:30.678Z,100498.88
2022-08-03T17:45:08.302Z,100499.06
2022-08-03T17:47:43.860Z,100501.91
2022-08-03T17:50:25.076Z,100493.09
2022-08-03T17:53:07.510Z,100511.09
2022-08-03T17:55:54.863Z,100507.28
2022-08-03T17:58:39.625Z,100507.47
2022-08-03T18:02:00.316Z,100501.50
2022-08-03T18:04:30.019Z,100501.16
2022-08-03T18:07:11.279Z,100507.06
2022-08-03T18:10:04.538Z,100503.84
2022-08-03T18:12:51.885Z,100505.44
2022-08-03T18:15:26.025Z,100499.41
2022-08-03T18:18:02.008Z,100505.91
2022-08-03T18:20:40.895Z,100498.75
2022-08-03T18:23:25.121Z,100496.97
2022-08-03T18:26:01.381Z,100501.56
2022-08-03T18:28:32.237Z,100507.28
2022-08-03T18:31:04.261Z,100505.09
2022-08-03T18:34:17.896Z,100503.47
2022-08-03T18:36:29.929Z,100489.94
2022-08-03T18:39:00.222Z,100489.78
2022-08-03T18:41:33.530Z,100491.91
2022-08-03T18:44:08.185Z,100485.34
2022-08-03T18:46:51.430Z,100500.25
2022-08-03T18:49:42.312Z,100499.69
2022-08-03T18:52:17.947Z,100500.22
2022-08-03T18:55:06.564Z,100489.78
2022-08-03T18:57:43.364Z,100492.72
2022-08-03T19:00:16.158Z,100491.88
2022-08-03T19:02:50.232Z,100498.91
2022-08-03T19:05:21.438Z,100494.03
2022-08-03T19:07:58.424Z,100492.88
2022-08-03T19:10:32.137Z,100503.66
2022-08-03T19:13:05.423Z,100501.94
2022-08-03T19:15:51.394Z,100495.63
2022-08-03T19:18:22.499Z,100495.91
2022-08-03T19:20:54.613Z,100490.63
2022-08-03T19:23:24.940Z,100498.59
2022-08-03T19:25:53.119Z,100497.19
2022-08-03T19:31:12.859Z,100506.63
2022-08-03T19:33:57.433Z,100503.34
2022-08-03T19:36:28.603Z,100501.81
2022-08-03T19:38:57.388Z,100499.50
2022-08-03T19:41:41.649Z,100501.78
2022-08-03T19:46:55.082Z,100507.00
2022-08-03T19:50:06.201Z,100486.56
2022-08-03T19:52:24.182Z,100506.25
2022-08-03T19:54:55.243Z,100506.59
2022-08-03T19:57:27.049Z,100511.66
2022-08-03T19:59:57.305Z,100507.00
2022-08-03T20:02:28.058Z,100491.53
2022-08-03T20:04:59.645Z,100491.06
2022-08-03T20:07:30.693Z,100501.91
2022-08-03T20:10:01.371Z,100502.03
2022-08-03T20:12:34.391Z,100483.56
2022-08-03T20:15:09.049Z,100489.69
2022-08-03T20:17:56.063Z,100500.44
2022-08-03T20:20:28.084Z,100498.03
2022-08-03T20:22:58.786Z,100499.34
2022-08-03T20:25:38.579Z,100495.72
2022-08-03T20:28:14.242Z,100502.06
2022-08-03T20:30:47.215Z,100505.97
2022-08-03T20:33:18.992Z,100494.06
2022-08-03T20:35:49.640Z,100501.38
2022-08-03T20:38:19.476Z,100500.22
2022-08-03T20:40:48.488Z,100510.00
2022-08-03T20:43:16.782Z,100490.75
2022-08-03T20:46:00.028Z,100504.44
2022-08-03T20:48:37.888Z,100508.06
2022-08-03T20:51:19.391Z,100509.69
2022-08-03T20:54:00.505Z,100499.34
2022-08-03T20:56:33.660Z,100497.34
2022-08-03T20:59:03.627Z,100497.81
2022-08-03T21:01:35.950Z,100499.25
2022-08-03T21:04:07.212Z,100498.63
2022-08-03T21:06:53.408Z,100499.47
2022-08-03T21:09:33.388Z,100493.69
2022-08-03T21:12:13.316Z,100469.78
2022-08-03T21:13:10.182Z,100498.91
2022-08-03T21:14:51.883Z,100496.41
2022-08-03T21:17:39.984Z,100494.84
2022-08-03T21:20:12.099Z,100469.41
2022-08-03T21:22:43.526Z,100496.72
2022-08-03T21:25:15.038Z,100443.59
2022-08-03T21:27:43.345Z,100491.19
2022-08-03T21:30:12.707Z,100489.19
2022-08-03T21:32:45.368Z,100488.81
2022-08-03T21:35:15.968Z,100479.06
2022-08-03T21:37:44.982Z,100491.75
2022-08-03T21:40:15.384Z,100482.69
2022-08-03T21:42:44.885Z,100480.22
2022-08-03T21:45:17.437Z,100484.44
2022-08-03T21:47:48.398Z,100479.72
2022-08-03T21:50:18.197Z,100492.38
2022-08-03T21:52:48.471Z,100491.22
2022-08-03T21:55:18.590Z,100483.56
2022-08-03T21:57:52.637Z,100467.66
2022-08-03T22:00:22.895Z,100483.41
2022-08-03T22:02:55.294Z,100466.13
2022-08-03T22:05:29.135Z,100479.66
2022-08-03T22:08:10.716Z,100486.84
2022-08-03T22:10:38.919Z,100480.59
2022-08-03T22:13:07.245Z,100471.44
2022-08-03T22:15:35.252Z,100471.06
2022-08-03T22:18:03.648Z,100480.47
2022-08-03T22:20:33.225Z,100479.03
2022-08-03T22:23:03.749Z,100475.06
2022-08-03T22:25:33.538Z,100454.28
2022-08-03T22:28:03.707Z,100474.19
2022-08-03T22:30:33.095Z,100476.91
2022-08-03T22:33:02.488Z,100476.44
2022-08-03T22:35:48.054Z,100470.44
2022-08-03T22:38:17.358Z,100474.41
2022-08-03T22:40:45.926Z,100446.38
2022-08-03T22:43:13.884Z,100468.88
2022-08-03T22:46:11.223Z,100464.72
2022-08-03T22:48:35.408Z,100465.56
2022-08-03T22:51:10.686Z,100465.22
2022-08-03T22:53:40.032Z,100474.22
2022-08-03T22:56:08.681Z,100470.69
2022-08-03T22:58:36.548Z,100469.50
2022-08-03T23:01:06.918Z,100467.50
2022-08-03T23:03:59.069Z,100461.84
2022-08-03T23:06:32.403Z,100469.72
2022-08-03T23:09:00.671Z,100465.38
2022-08-03T23:11:29.548Z,100477.47
2022-08-03T23:13:59.230Z,100454.69
2022-08-03T23:16:29.504Z,100454.69
2022-08-03T23:18:59.179Z,100464.22
2022-08-03T23:21:53.326Z,100468.81
2022-08-03T23:24:29.836Z,100463.63
2022-08-03T23:26:58.717Z,100464.34
2022-08-03T23:29:29.899Z,100463.25
2022-08-03T23:31:59.353Z,100465.94
2022-08-03T23:34:46.847Z,100465.59
2022-08-03T23:37:16.351Z,100466.88
2022-08-03T23:39:46.479Z,100456.91
2022-08-03T23:42:16.237Z,100458.16
2022-08-03T23:44:45.748Z,100457.78
2022-08-03T23:47:13.753Z,100448.84
2022-08-03T23:49:41.697Z,100447.09
2022-08-03T23:52:11.302Z,100445.44
2022-08-03T23:54:52.252Z,100440.91
2022-08-03T23:57:29.597Z,100440.91
